sensor_id;sensor_type;location;lat;lon;timestamp;P1;durP1;ratioP1;P2;durP2;ratioP2
67747;SDS011;54543;50.712;6.070;2023-05-10T00:01:07;15.57;;;7.97;;
67747;SDS011;54543;50.712;6.070;2023-05-10T00:03:32;15.90;;;8.02;;
67747;SDS011;54543;50.712;6.070;2023-05-10T00:05:58;15.18;;;8.32;;
67747;SDS011;54543;50.712;6.070;2023-05-10T00:08:23;17.75;;;9.68;;
67747;SDS011;54543;50.712;6.070;2023-05-10T00:10:49;11.30;;;7.15;;
67747;SDS011;54543;50.712;6.070;2023-05-10T00:13:15;17.25;;;9.95;;
67747;SDS011;54543;50.712;6.070;2023-05-10T00:15:40;20.73;;;9.93;;
67747;SDS011;54543;50.712;6.070;2023-05-10T00:18:06;15.05;;;8.52;;
67747;SDS011;54543;50.712;6.070;2023-05-10T00:20:31;13.32;;;7.00;;
67747;SDS011;54543;50.712;6.070;2023-05-10T00:22:57;13.23;;;7.95;;
67747;SDS011;54543;50.712;6.070;2023-05-10T00:25:23;14.30;;;8.10;;
67747;SDS011;54543;50.712;6.070;2023-05-10T00:27:48;12.52;;;7.35;;
67747;SDS011;54543;50.712;6.070;2023-05-10T00:30:14;11.98;;;6.25;;
67747;SDS011;54543;50.712;6.070;2023-05-10T00:32:40;13.27;;;7.85;;
67747;SDS011;54543;50.712;6.070;2023-05-10T00:35:05;9.10;;;5.93;;
67747;SDS011;54543;50.712;6.070;2023-05-10T00:37:31;12.95;;;6.30;;
67747;SDS011;54543;50.712;6.070;2023-05-10T00:39:57;11.60;;;6.65;;
67747;SDS011;54543;50.712;6.070;2023-05-10T00:42:23;10.85;;;6.53;;
67747;SDS011;54543;50.712;6.070;2023-05-10T00:44:48;11.40;;;6.47;;
67747;SDS011;54543;50.712;6.070;2023-05-10T00:47:14;11.38;;;6.03;;
67747;SDS011;54543;50.712;6.070;2023-05-10T00:49:41;11.50;;;6.07;;
67747;SDS011;54543;50.712;6.070;2023-05-10T00:52:07;9.38;;;5.10;;
67747;SDS011;54543;50.712;6.070;2023-05-10T00:54:33;9.60;;;6.07;;
67747;SDS011;54543;50.712;6.070;2023-05-10T00:56:59;9.00;;;5.35;;
67747;SDS011;54543;50.712;6.070;2023-05-10T00:59:24;8.85;;;4.95;;
67747;SDS011;54543;50.712;6.070;2023-05-10T01:01:50;8.45;;;4.50;;
67747;SDS011;54543;50.712;6.070;2023-05-10T01:04:17;9.60;;;5.72;;
67747;SDS011;54543;50.712;6.070;2023-05-10T01:06:45;8.48;;;5.15;;
67747;SDS011;54543;50.712;6.070;2023-05-10T01:09:10;10.05;;;6.15;;
67747;SDS011;54543;50.712;6.070;2023-05-10T01:11:38;8.80;;;5.20;;
67747;SDS011;54543;50.712;6.070;2023-05-10T01:14:04;9.88;;;6.20;;
67747;SDS011;54543;50.712;6.070;2023-05-10T01:16:38;8.55;;;5.10;;
67747;SDS011;54543;50.712;6.070;2023-05-10T01:19:06;7.35;;;4.45;;
67747;SDS011;54543;50.712;6.070;2023-05-10T01:35:50;9.40;;;5.25;;
67747;SDS011;54543;50.712;6.070;2023-05-10T01:41:24;8.27;;;4.68;;
67747;SDS011;54543;50.712;6.070;2023-05-10T01:44:01;9.05;;;5.32;;
67747;SDS011;54543;50.712;6.070;2023-05-10T01:46:42;6.93;;;4.10;;
67747;SDS011;54543;50.712;6.070;2023-05-10T01:49:08;9.13;;;5.20;;
67747;SDS011;54543;50.712;6.070;2023-05-10T01:51:44;7.22;;;4.93;;
67747;SDS011;54543;50.712;6.070;2023-05-10T01:54:14;10.10;;;6.20;;
67747;SDS011;54543;50.712;6.070;2023-05-10T01:56:44;10.88;;;6.50;;
67747;SDS011;54543;50.712;6.070;2023-05-10T01:59:17;9.32;;;6.22;;
67747;SDS011;54543;50.712;6.070;2023-05-10T02:01:44;11.35;;;6.53;;
67747;SDS011;54543;50.712;6.070;2023-05-10T02:04:11;11.13;;;6.38;;
67747;SDS011;54543;50.712;6.070;2023-05-10T02:06:40;12.02;;;6.00;;
67747;SDS011;54543;50.712;6.070;2023-05-10T02:09:07;16.08;;;9.25;;
67747;SDS011;54543;50.712;6.070;2023-05-10T02:11:37;12.88;;;7.88;;
67747;SDS011;54543;50.712;6.070;2023-05-10T02:14:05;13.88;;;8.48;;
67747;SDS011;54543;50.712;6.070;2023-05-10T02:16:33;14.80;;;8.68;;
67747;SDS011;54543;50.712;6.070;2023-05-10T02:19:01;14.70;;;8.82;;
67747;SDS011;54543;50.712;6.070;2023-05-10T02:21:29;17.05;;;10.10;;
67747;SDS011;54543;50.712;6.070;2023-05-10T02:23:56;19.80;;;9.20;;
67747;SDS011;54543;50.712;6.070;2023-05-10T02:26:23;13.63;;;7.53;;
67747;SDS011;54543;50.712;6.070;2023-05-10T02:28:50;16.15;;;9.40;;
67747;SDS011;54543;50.712;6.070;2023-05-10T02:31:17;15.80;;;9.02;;
67747;SDS011;54543;50.712;6.070;2023-05-10T02:33:44;15.57;;;9.95;;
67747;SDS011;54543;50.712;6.070;2023-05-10T02:36:11;18.88;;;10.65;;
67747;SDS011;54543;50.712;6.070;2023-05-10T02:38:38;13.35;;;7.85;;
67747;SDS011;54543;50.712;6.070;2023-05-10T02:41:04;19.15;;;11.10;;
67747;SDS011;54543;50.712;6.070;2023-05-10T02:43:32;13.52;;;8.00;;
67747;SDS011;54543;50.712;6.070;2023-05-10T02:45:59;13.68;;;7.93;;
67747;SDS011;54543;50.712;6.070;2023-05-10T02:48:24;14.50;;;8.75;;
67747;SDS011;54543;50.712;6.070;2023-05-10T02:50:50;19.05;;;10.02;;
67747;SDS011;54543;50.712;6.070;2023-05-10T02:53:22;16.35;;;8.88;;
67747;SDS011;54543;50.712;6.070;2023-05-10T02:55:56;16.77;;;9.85;;
67747;SDS011;54543;50.712;6.070;2023-05-10T02:58:25;17.08;;;9.35;;
67747;SDS011;54543;50.712;6.070;2023-05-10T03:00:52;20.30;;;11.10;;
67747;SDS011;54543;50.712;6.070;2023-05-10T03:03:18;14.85;;;9.00;;
67747;SDS011;54543;50.712;6.070;2023-05-10T03:05:45;21.15;;;10.50;;
67747;SDS011;54543;50.712;6.070;2023-05-10T03:08:10;13.55;;;7.93;;
67747;SDS011;54543;50.712;6.070;2023-05-10T03:10:38;18.15;;;9.30;;
67747;SDS011;54543;50.712;6.070;2023-05-10T03:13:27;15.35;;;7.78;;
67747;SDS011;54543;50.712;6.070;2023-05-10T03:16:06;21.00;;;10.35;;
67747;SDS011;54543;50.712;6.070;2023-05-10T03:21:07;18.23;;;8.88;;
67747;SDS011;54543;50.712;6.070;2023-05-10T03:23:46;15.65;;;8.20;;
67747;SDS011;54543;50.712;6.070;2023-05-10T03:26:26;14.18;;;8.02;;
67747;SDS011;54543;50.712;6.070;2023-05-10T03:28:53;14.02;;;7.15;;
67747;SDS011;54543;50.712;6.070;2023-05-10T03:31:20;13.82;;;7.60;;
67747;SDS011;54543;50.712;6.070;2023-05-10T03:33:49;18.55;;;9.23;;
67747;SDS011;54543;50.712;6.070;2023-05-10T03:36:16;18.98;;;8.88;;
67747;SDS011;54543;50.712;6.070;2023-05-10T03:38:42;12.15;;;7.10;;
67747;SDS011;54543;50.712;6.070;2023-05-10T03:41:07;14.65;;;7.60;;
67747;SDS011;54543;50.712;6.070;2023-05-10T03:43:33;15.98;;;8.05;;
67747;SDS011;54543;50.712;6.070;2023-05-10T03:46:01;13.60;;;7.18;;
67747;SDS011;54543;50.712;6.070;2023-05-10T03:48:27;12.52;;;6.20;;
67747;SDS011;54543;50.712;6.070;2023-05-10T03:50:53;10.77;;;5.43;;
67747;SDS011;54543;50.712;6.070;2023-05-10T03:53:18;12.68;;;6.28;;
67747;SDS011;54543;50.712;6.070;2023-05-10T03:55:44;14.73;;;7.35;;
67747;SDS011;54543;50.712;6.070;2023-05-10T03:58:12;13.65;;;7.18;;
67747;SDS011;54543;50.712;6.070;2023-05-10T04:00:38;11.88;;;6.55;;
67747;SDS011;54543;50.712;6.070;2023-05-10T04:03:09;11.15;;;5.82;;
67747;SDS011;54543;50.712;6.070;2023-05-10T04:05:35;10.82;;;5.60;;
67747;SDS011;54543;50.712;6.070;2023-05-10T04:08:01;9.93;;;5.43;;
67747;SDS011;54543;50.712;6.070;2023-05-10T04:10:27;11.07;;;6.60;;
67747;SDS011;54543;50.712;6.070;2023-05-10T04:12:53;13.55;;;8.40;;
67747;SDS011;54543;50.712;6.070;2023-05-10T04:15:18;13.55;;;7.45;;
67747;SDS011;54543;50.712;6.070;2023-05-10T04:17:44;14.48;;;7.95;;
67747;SDS011;54543;50.712;6.070;2023-05-10T04:20:10;14.93;;;9.25;;
67747;SDS011;54543;50.712;6.070;2023-05-10T04:22:36;16.17;;;9.23;;
67747;SDS011;54543;50.712;6.070;2023-05-10T04:25:01;22.58;;;13.25;;
67747;SDS011;54543;50.712;6.070;2023-05-10T04:27:27;16.55;;;8.82;;
67747;SDS011;54543;50.712;6.070;2023-05-10T04:29:53;11.15;;;6.90;;
67747;SDS011;54543;50.712;6.070;2023-05-10T04:32:19;12.75;;;8.45;;
67747;SDS011;54543;50.712;6.070;2023-05-10T04:34:45;11.18;;;7.55;;
67747;SDS011;54543;50.712;6.070;2023-05-10T04:37:11;10.65;;;7.10;;
67747;SDS011;54543;50.712;6.070;2023-05-10T04:39:37;9.73;;;6.22;;
67747;SDS011;54543;50.712;6.070;2023-05-10T04:42:03;10.85;;;5.80;;
67747;SDS011;54543;50.712;6.070;2023-05-10T04:47:00;12.43;;;7.47;;
67747;SDS011;54543;50.712;6.070;2023-05-10T04:49:33;12.55;;;6.32;;
67747;SDS011;54543;50.712;6.070;2023-05-10T04:54:27;8.43;;;4.65;;
67747;SDS011;54543;50.712;6.070;2023-05-10T04:56:53;10.23;;;5.03;;
67747;SDS011;54543;50.712;6.070;2023-05-10T04:59:19;9.95;;;4.53;;
67747;SDS011;54543;50.712;6.070;2023-05-10T05:01:44;12.25;;;4.70;;
67747;SDS011;54543;50.712;6.070;2023-05-10T05:04:10;8.77;;;4.50;;
67747;SDS011;54543;50.712;6.070;2023-05-10T05:06:36;12.27;;;6.68;;
67747;SDS011;54543;50.712;6.070;2023-05-10T05:09:01;10.00;;;5.38;;
67747;SDS011;54543;50.712;6.070;2023-05-10T05:11:27;22.50;;;12.80;;
67747;SDS011;54543;50.712;6.070;2023-05-10T05:13:53;14.57;;;7.63;;
67747;SDS011;54543;50.712;6.070;2023-05-10T05:16:18;14.02;;;7.00;;
67747;SDS011;54543;50.712;6.070;2023-05-10T05:18:44;10.55;;;5.70;;
67747;SDS011;54543;50.712;6.070;2023-05-10T05:21:13;11.25;;;4.60;;
67747;SDS011;54543;50.712;6.070;2023-05-10T05:23:43;17.38;;;7.88;;
67747;SDS011;54543;50.712;6.070;2023-05-10T05:26:09;11.45;;;5.55;;
67747;SDS011;54543;50.712;6.070;2023-05-10T05:28:35;13.48;;;5.32;;
67747;SDS011;54543;50.712;6.070;2023-05-10T05:31:05;7.78;;;3.95;;
67747;SDS011;54543;50.712;6.070;2023-05-10T05:33:32;14.57;;;7.32;;
67747;SDS011;54543;50.712;6.070;2023-05-10T05:36:01;11.30;;;6.22;;
67747;SDS011;54543;50.712;6.070;2023-05-10T05:38:28;8.50;;;3.55;;
67747;SDS011;54543;50.712;6.070;2023-05-10T05:40:54;8.80;;;4.43;;
67747;SDS011;54543;50.712;6.070;2023-05-10T05:43:20;7.57;;;3.63;;
67747;SDS011;54543;50.712;6.070;2023-05-10T05:45:45;8.52;;;3.42;;
67747;SDS011;54543;50.712;6.070;2023-05-10T05:48:11;6.75;;;3.55;;
67747;SDS011;54543;50.712;6.070;2023-05-10T05:50:36;6.90;;;4.13;;
67747;SDS011;54543;50.712;6.070;2023-05-10T05:53:02;5.60;;;3.25;;
67747;SDS011;54543;50.712;6.070;2023-05-10T05:55:28;5.90;;;3.17;;
67747;SDS011;54543;50.712;6.070;2023-05-10T05:57:54;5.68;;;2.80;;
67747;SDS011;54543;50.712;6.070;2023-05-10T06:00:20;3.75;;;2.45;;
67747;SDS011;54543;50.712;6.070;2023-05-10T06:02:46;6.07;;;3.03;;
67747;SDS011;54543;50.712;6.070;2023-05-10T06:05:12;6.57;;;3.22;;
67747;SDS011;54543;50.712;6.070;2023-05-10T06:07:39;5.82;;;2.85;;
67747;SDS011;54543;50.712;6.070;2023-05-10T06:10:07;6.43;;;3.13;;
67747;SDS011;54543;50.712;6.070;2023-05-10T06:12:33;4.95;;;2.28;;
67747;SDS011;54543;50.712;6.070;2023-05-10T06:14:59;4.40;;;2.55;;
67747;SDS011;54543;50.712;6.070;2023-05-10T06:17:25;5.53;;;2.88;;
67747;SDS011;54543;50.712;6.070;2023-05-10T06:19:52;5.55;;;2.50;;
67747;SDS011;54543;50.712;6.070;2023-05-10T06:22:18;7.70;;;3.13;;
67747;SDS011;54543;50.712;6.070;2023-05-10T06:24:43;4.55;;;3.15;;
67747;SDS011;54543;50.712;6.070;2023-05-10T06:27:09;6.32;;;3.17;;
67747;SDS011;54543;50.712;6.070;2023-05-10T06:29:35;4.03;;;2.50;;
67747;SDS011;54543;50.712;6.070;2023-05-10T06:32:00;5.32;;;2.58;;
67747;SDS011;54543;50.712;6.070;2023-05-10T06:34:26;3.95;;;2.08;;
67747;SDS011;54543;50.712;6.070;2023-05-10T06:36:52;2.78;;;1.60;;
67747;SDS011;54543;50.712;6.070;2023-05-10T06:39:17;2.50;;;1.58;;
67747;SDS011;54543;50.712;6.070;2023-05-10T06:41:43;2.85;;;1.60;;
67747;SDS011;54543;50.712;6.070;2023-05-10T06:44:09;2.83;;;1.50;;
67747;SDS011;54543;50.712;6.070;2023-05-10T06:46:34;2.85;;;1.70;;
67747;SDS011;54543;50.712;6.070;2023-05-10T06:49:00;2.60;;;1.38;;
67747;SDS011;54543;50.712;6.070;2023-05-10T06:51:26;3.03;;;1.70;;
67747;SDS011;54543;50.712;6.070;2023-05-10T06:53:51;2.30;;;1.30;;
67747;SDS011;54543;50.712;6.070;2023-05-10T06:56:17;2.60;;;1.52;;
67747;SDS011;54543;50.712;6.070;2023-05-10T06:58:42;2.42;;;1.40;;
67747;SDS011;54543;50.712;6.070;2023-05-10T07:01:08;4.22;;;1.90;;
67747;SDS011;54543;50.712;6.070;2023-05-10T07:03:34;3.42;;;1.80;;
67747;SDS011;54543;50.712;6.070;2023-05-10T07:06:00;4.35;;;1.85;;
67747;SDS011;54543;50.712;6.070;2023-05-10T07:08:28;2.63;;;1.50;;
67747;SDS011;54543;50.712;6.070;2023-05-10T07:10:59;4.20;;;1.70;;
67747;SDS011;54543;50.712;6.070;2023-05-10T07:13:29;3.00;;;2.03;;
67747;SDS011;54543;50.712;6.070;2023-05-10T07:15:55;2.60;;;1.60;;
67747;SDS011;54543;50.712;6.070;2023-05-10T07:18:21;3.05;;;1.40;;
67747;SDS011;54543;50.712;6.070;2023-05-10T07:20:46;5.13;;;1.85;;
67747;SDS011;54543;50.712;6.070;2023-05-10T07:23:12;2.65;;;1.52;;
67747;SDS011;54543;50.712;6.070;2023-05-10T07:25:37;3.05;;;1.50;;
67747;SDS011;54543;50.712;6.070;2023-05-10T07:28:03;3.13;;;1.83;;
67747;SDS011;54543;50.712;6.070;2023-05-10T07:30:29;7.13;;;2.63;;
67747;SDS011;54543;50.712;6.070;2023-05-10T07:32:56;4.63;;;2.55;;
67747;SDS011;54543;50.712;6.070;2023-05-10T07:35:21;4.07;;;2.22;;
67747;SDS011;54543;50.712;6.070;2023-05-10T07:37:47;4.45;;;2.58;;
67747;SDS011;54543;50.712;6.070;2023-05-10T07:40:12;4.28;;;2.20;;
67747;SDS011;54543;50.712;6.070;2023-05-10T07:42:38;4.22;;;2.20;;
67747;SDS011;54543;50.712;6.070;2023-05-10T07:45:04;3.78;;;1.98;;
67747;SDS011;54543;50.712;6.070;2023-05-10T07:47:30;4.18;;;2.13;;
67747;SDS011;54543;50.712;6.070;2023-05-10T07:49:55;4.35;;;2.25;;
67747;SDS011;54543;50.712;6.070;2023-05-10T07:52:21;4.35;;;1.80;;
67747;SDS011;54543;50.712;6.070;2023-05-10T07:54:47;4.60;;;1.77;;
67747;SDS011;54543;50.712;6.070;2023-05-10T07:57:12;2.85;;;1.60;;
67747;SDS011;54543;50.712;6.070;2023-05-10T07:59:40;3.88;;;1.80;;
67747;SDS011;54543;50.712;6.070;2023-05-10T08:02:06;2.42;;;1.25;;
67747;SDS011;54543;50.712;6.070;2023-05-10T08:04:31;3.10;;;1.50;;
67747;SDS011;54543;50.712;6.070;2023-05-10T08:06:57;1.65;;;1.45;;
67747;SDS011;54543;50.712;6.070;2023-05-10T08:09:23;2.60;;;1.50;;
67747;SDS011;54543;50.712;6.070;2023-05-10T08:11:49;3.60;;;1.40;;
67747;SDS011;54543;50.712;6.070;2023-05-10T08:14:15;5.07;;;1.50;;
67747;SDS011;54543;50.712;6.070;2023-05-10T08:16:41;2.38;;;1.48;;
67747;SDS011;54543;50.712;6.070;2023-05-10T08:19:07;2.85;;;1.35;;
67747;SDS011;54543;50.712;6.070;2023-05-10T08:21:33;2.25;;;1.30;;
67747;SDS011;54543;50.712;6.070;2023-05-10T08:23:58;1.75;;;1.25;;
67747;SDS011;54543;50.712;6.070;2023-05-10T08:26:24;3.10;;;1.70;;
67747;SDS011;54543;50.712;6.070;2023-05-10T08:28:50;3.00;;;1.70;;
67747;SDS011;54543;50.712;6.070;2023-05-10T08:31:15;2.90;;;2.08;;
67747;SDS011;54543;50.712;6.070;2023-05-10T08:33:41;2.72;;;1.67;;
67747;SDS011;54543;50.712;6.070;2023-05-10T08:36:07;2.53;;;1.70;;
67747;SDS011;54543;50.712;6.070;2023-05-10T08:38:32;3.97;;;2.22;;
67747;SDS011;54543;50.712;6.070;2023-05-10T08:40:58;3.20;;;2.05;;
67747;SDS011;54543;50.712;6.070;2023-05-10T08:43:27;5.25;;;2.15;;
67747;SDS011;54543;50.712;6.070;2023-05-10T08:45:56;4.75;;;2.08;;
67747;SDS011;54543;50.712;6.070;2023-05-10T08:48:25;4.22;;;2.10;;
67747;SDS011;54543;50.712;6.070;2023-05-10T08:50:54;3.42;;;2.58;;
67747;SDS011;54543;50.712;6.070;2023-05-10T08:53:24;3.80;;;2.20;;
67747;SDS011;54543;50.712;6.070;2023-05-10T08:55:51;2.90;;;1.88;;
67747;SDS011;54543;50.712;6.070;2023-05-10T08:58:17;3.30;;;2.20;;
67747;SDS011;54543;50.712;6.070;2023-05-10T09:00:44;3.70;;;2.38;;
67747;SDS011;54543;50.712;6.070;2023-05-10T09:03:12;3.35;;;2.10;;
67747;SDS011;54543;50.712;6.070;2023-05-10T09:05:38;2.83;;;1.85;;
67747;SDS011;54543;50.712;6.070;2023-05-10T09:08:03;3.17;;;2.13;;
67747;SDS011;54543;50.712;6.070;2023-05-10T09:10:30;4.22;;;2.30;;
67747;SDS011;54543;50.712;6.070;2023-05-10T09:12:56;3.40;;;2.30;;
67747;SDS011;54543;50.712;6.070;2023-05-10T09:15:23;6.05;;;3.13;;
67747;SDS011;54543;50.712;6.070;2023-05-10T09:17:49;4.05;;;2.38;;
67747;SDS011;54543;50.712;6.070;2023-05-10T09:20:14;4.20;;;3.00;;
67747;SDS011;54543;50.712;6.070;2023-05-10T09:22:42;4.43;;;2.95;;
67747;SDS011;54543;50.712;6.070;2023-05-10T09:25:12;6.50;;;2.95;;
67747;SDS011;54543;50.712;6.070;2023-05-10T09:27:41;3.97;;;2.80;;
67747;SDS011;54543;50.712;6.070;2023-05-10T09:30:10;6.13;;;2.65;;
67747;SDS011;54543;50.712;6.070;2023-05-10T09:32:41;4.65;;;2.70;;
67747;SDS011;54543;50.712;6.070;2023-05-10T09:35:14;4.13;;;2.60;;
67747;SDS011;54543;50.712;6.070;2023-05-10T09:37:44;3.85;;;2.70;;
67747;SDS011;54543;50.712;6.070;2023-05-10T09:40:16;3.40;;;2.30;;
67747;SDS011;54543;50.712;6.070;2023-05-10T09:42:53;2.50;;;1.80;;
67747;SDS011;54543;50.712;6.070;2023-05-10T09:45:32;3.92;;;2.80;;
67747;SDS011;54543;50.712;6.070;2023-05-10T09:48:00;4.10;;;2.83;;
67747;SDS011;54543;50.712;6.070;2023-05-10T09:50:27;3.75;;;2.33;;
67747;SDS011;54543;50.712;6.070;2023-05-10T09:55:23;3.67;;;2.65;;
67747;SDS011;54543;50.712;6.070;2023-05-10T09:58:00;3.60;;;2.80;;
67747;SDS011;54543;50.712;6.070;2023-05-10T10:00:27;3.70;;;2.80;;
67747;SDS011;54543;50.712;6.070;2023-05-10T10:02:59;4.35;;;2.97;;
67747;SDS011;54543;50.712;6.070;2023-05-10T10:05:28;3.53;;;2.53;;
67747;SDS011;54543;50.712;6.070;2023-05-10T10:07:55;3.50;;;2.50;;
67747;SDS011;54543;50.712;6.070;2023-05-10T10:10:22;3.25;;;2.10;;
67747;SDS011;54543;50.712;6.070;2023-05-10T10:12:49;4.82;;;2.80;;
67747;SDS011;54543;50.712;6.070;2023-05-10T10:15:15;4.63;;;2.58;;
67747;SDS011;54543;50.712;6.070;2023-05-10T10:17:41;3.50;;;2.50;;
67747;SDS011;54543;50.712;6.070;2023-05-10T10:20:08;4.50;;;3.20;;
67747;SDS011;54543;50.712;6.070;2023-05-10T10:22:36;3.70;;;2.30;;
67747;SDS011;54543;50.712;6.070;2023-05-10T10:25:02;4.68;;;3.22;;
67747;SDS011;54543;50.712;6.070;2023-05-10T10:32:59;4.13;;;3.10;;
67747;SDS011;54543;50.712;6.070;2023-05-10T10:35:32;3.97;;;3.05;;
67747;SDS011;54543;50.712;6.070;2023-05-10T10:37:59;5.25;;;3.35;;
67747;SDS011;54543;50.712;6.070;2023-05-10T10:40:32;4.18;;;2.78;;
67747;SDS011;54543;50.712;6.070;2023-05-10T10:43:44;5.18;;;3.05;;
67747;SDS011;54543;50.712;6.070;2023-05-10T10:46:10;5.30;;;3.80;;
67747;SDS011;54543;50.712;6.070;2023-05-10T10:51:37;4.45;;;3.15;;
67747;SDS011;54543;50.712;6.070;2023-05-10T10:54:10;3.90;;;2.70;;
67747;SDS011;54543;50.712;6.070;2023-05-10T10:56:36;4.13;;;2.72;;
67747;SDS011;54543;50.712;6.070;2023-05-10T10:59:01;4.15;;;3.00;;
67747;SDS011;54543;50.712;6.070;2023-05-10T11:01:27;3.15;;;2.28;;
67747;SDS011;54543;50.712;6.070;2023-05-10T11:06:30;4.90;;;3.65;;
67747;SDS011;54543;50.712;6.070;2023-05-10T11:08:57;5.45;;;3.75;;
67747;SDS011;54543;50.712;6.070;2023-05-10T11:11:23;4.70;;;3.05;;
67747;SDS011;54543;50.712;6.070;2023-05-10T11:13:49;4.35;;;3.25;;
67747;SDS011;54543;50.712;6.070;2023-05-10T11:16:15;4.30;;;3.25;;
67747;SDS011;54543;50.712;6.070;2023-05-10T11:19:03;5.10;;;3.88;;
67747;SDS011;54543;50.712;6.070;2023-05-10T11:21:32;5.18;;;3.88;;
67747;SDS011;54543;50.712;6.070;2023-05-10T11:23:59;4.32;;;3.17;;
67747;SDS011;54543;50.712;6.070;2023-05-10T11:26:35;3.90;;;2.85;;
67747;SDS011;54543;50.712;6.070;2023-05-10T11:29:00;5.75;;;4.65;;
67747;SDS011;54543;50.712;6.070;2023-05-10T11:31:28;4.68;;;3.95;;
67747;SDS011;54543;50.712;6.070;2023-05-10T11:33:55;7.03;;;4.82;;
67747;SDS011;54543;50.712;6.070;2023-05-10T11:36:25;6.00;;;4.50;;
67747;SDS011;54543;50.712;6.070;2023-05-10T11:38:52;5.43;;;4.53;;
67747;SDS011;54543;50.712;6.070;2023-05-10T11:41:18;5.90;;;4.53;;
67747;SDS011;54543;50.712;6.070;2023-05-10T11:43:51;6.80;;;5.00;;
67747;SDS011;54543;50.712;6.070;2023-05-10T11:46:19;5.97;;;4.50;;
67747;SDS011;54543;50.712;6.070;2023-05-10T11:48:47;8.10;;;4.57;;
67747;SDS011;54543;50.712;6.070;2023-05-10T11:51:15;4.60;;;3.75;;
67747;SDS011;54543;50.712;6.070;2023-05-10T11:53:44;4.95;;;3.50;;
67747;SDS011;54543;50.712;6.070;2023-05-10T11:56:10;7.00;;;4.43;;
67747;SDS011;54543;50.712;6.070;2023-05-10T11:58:37;3.80;;;2.97;;
67747;SDS011;54543;50.712;6.070;2023-05-10T12:01:04;4.70;;;3.08;;
67747;SDS011;54543;50.712;6.070;2023-05-10T12:03:31;4.85;;;3.70;;
67747;SDS011;54543;50.712;6.070;2023-05-10T12:05:57;4.80;;;3.00;;
67747;SDS011;54543;50.712;6.070;2023-05-10T12:08:26;4.40;;;3.28;;
67747;SDS011;54543;50.712;6.070;2023-05-10T12:10:53;4.40;;;3.13;;
67747;SDS011;54543;50.712;6.070;2023-05-10T12:13:29;4.63;;;3.50;;
67747;SDS011;54543;50.712;6.070;2023-05-10T12:15:57;3.60;;;2.80;;
67747;SDS011;54543;50.712;6.070;2023-05-10T12:18:23;4.65;;;3.42;;
67747;SDS011;54543;50.712;6.070;2023-05-10T12:20:52;4.60;;;3.25;;
67747;SDS011;54543;50.712;6.070;2023-05-10T12:23:19;4.57;;;3.38;;
67747;SDS011;54543;50.712;6.070;2023-05-10T12:25:45;4.93;;;3.88;;
67747;SDS011;54543;50.712;6.070;2023-05-10T12:28:11;5.32;;;4.25;;
67747;SDS011;54543;50.712;6.070;2023-05-10T12:30:37;6.30;;;3.80;;
67747;SDS011;54543;50.712;6.070;2023-05-10T12:33:07;4.97;;;2.90;;
67747;SDS011;54543;50.712;6.070;2023-05-10T12:35:43;4.32;;;3.00;;
67747;SDS011;54543;50.712;6.070;2023-05-10T12:38:26;4.47;;;3.10;;
67747;SDS011;54543;50.712;6.070;2023-05-10T12:41:01;5.32;;;3.65;;
67747;SDS011;54543;50.712;6.070;2023-05-10T12:43:31;3.38;;;2.30;;
67747;SDS011;54543;50.712;6.070;2023-05-10T12:45:57;6.25;;;3.38;;
67747;SDS011;54543;50.712;6.070;2023-05-10T12:48:23;4.25;;;2.80;;
67747;SDS011;54543;50.712;6.070;2023-05-10T12:50:49;4.53;;;3.20;;
67747;SDS011;54543;50.712;6.070;2023-05-10T12:53:17;4.95;;;2.88;;
67747;SDS011;54543;50.712;6.070;2023-05-10T12:55:43;5.43;;;3.10;;
67747;SDS011;54543;50.712;6.070;2023-05-10T12:58:09;4.80;;;3.40;;
67747;SDS011;54543;50.712;6.070;2023-05-10T13:00:37;4.60;;;3.00;;
67747;SDS011;54543;50.712;6.070;2023-05-10T13:03:03;3.70;;;2.75;;
67747;SDS011;54543;50.712;6.070;2023-05-10T13:05:31;4.65;;;2.63;;
67747;SDS011;54543;50.712;6.070;2023-05-10T13:07:58;4.05;;;2.90;;
67747;SDS011;54543;50.712;6.070;2023-05-10T13:10:24;4.80;;;2.92;;
67747;SDS011;54543;50.712;6.070;2023-05-10T13:12:52;3.97;;;2.28;;
67747;SDS011;54543;50.712;6.070;2023-05-10T13:15:17;4.85;;;2.60;;
67747;SDS011;54543;50.712;6.070;2023-05-10T13:17:44;3.20;;;2.25;;
67747;SDS011;54543;50.712;6.070;2023-05-10T13:20:10;3.65;;;2.28;;
67747;SDS011;54543;50.712;6.070;2023-05-10T13:22:36;3.28;;;2.30;;
67747;SDS011;54543;50.712;6.070;2023-05-10T13:25:04;3.90;;;2.55;;
67747;SDS011;54543;50.712;6.070;2023-05-10T13:27:32;2.88;;;2.03;;
67747;SDS011;54543;50.712;6.070;2023-05-10T13:29:59;3.15;;;2.20;;
67747;SDS011;54543;50.712;6.070;2023-05-10T13:32:28;3.15;;;2.15;;
67747;SDS011;54543;50.712;6.070;2023-05-10T13:35:12;3.58;;;2.15;;
67747;SDS011;54543;50.712;6.070;2023-05-10T13:37:39;3.33;;;2.42;;
67747;SDS011;54543;50.712;6.070;2023-05-10T13:40:10;3.53;;;2.47;;
67747;SDS011;54543;50.712;6.070;2023-05-10T13:42:36;3.80;;;2.35;;
67747;SDS011;54543;50.712;6.070;2023-05-10T13:47:31;5.35;;;3.00;;
67747;SDS011;54543;50.712;6.070;2023-05-10T13:49:57;3.30;;;2.38;;
67747;SDS011;54543;50.712;6.070;2023-05-10T13:52:24;3.45;;;2.22;;
67747;SDS011;54543;50.712;6.070;2023-05-10T13:54:49;3.17;;;2.40;;
67747;SDS011;54543;50.712;6.070;2023-05-10T13:57:18;3.05;;;1.95;;
67747;SDS011;54543;50.712;6.070;2023-05-10T13:59:44;4.18;;;2.60;;
67747;SDS011;54543;50.712;6.070;2023-05-10T14:02:10;5.00;;;2.30;;
67747;SDS011;54543;50.712;6.070;2023-05-10T14:04:37;3.50;;;2.60;;
67747;SDS011;54543;50.712;6.070;2023-05-10T14:07:05;3.45;;;2.28;;
67747;SDS011;54543;50.712;6.070;2023-05-10T14:09:30;3.75;;;2.25;;
67747;SDS011;54543;50.712;6.070;2023-05-10T14:11:56;2.90;;;2.25;;
67747;SDS011;54543;50.712;6.070;2023-05-10T14:14:22;2.70;;;2.08;;
67747;SDS011;54543;50.712;6.070;2023-05-10T14:16:48;2.88;;;2.08;;
67747;SDS011;54543;50.712;6.070;2023-05-10T14:19:13;4.40;;;2.50;;
67747;SDS011;54543;50.712;6.070;2023-05-10T14:21:39;3.25;;;2.38;;
67747;SDS011;54543;50.712;6.070;2023-05-10T14:24:04;3.30;;;2.30;;
67747;SDS011;54543;50.712;6.070;2023-05-10T14:26:32;4.50;;;2.67;;
67747;SDS011;54543;50.712;6.070;2023-05-10T14:29:00;3.38;;;2.38;;
67747;SDS011;54543;50.712;6.070;2023-05-10T14:31:26;3.53;;;2.22;;
67747;SDS011;54543;50.712;6.070;2023-05-10T14:33:52;2.65;;;2.00;;
67747;SDS011;54543;50.712;6.070;2023-05-10T14:36:18;3.75;;;2.47;;
67747;SDS011;54543;50.712;6.070;2023-05-10T14:38:44;3.10;;;2.38;;
67747;SDS011;54543;50.712;6.070;2023-05-10T14:41:10;3.90;;;2.40;;
67747;SDS011;54543;50.712;6.070;2023-05-10T14:43:39;2.78;;;2.30;;
67747;SDS011;54543;50.712;6.070;2023-05-10T14:46:06;3.08;;;2.60;;
67747;SDS011;54543;50.712;6.070;2023-05-10T14:48:31;2.60;;;2.10;;
67747;SDS011;54543;50.712;6.070;2023-05-10T14:50:57;4.60;;;2.95;;
67747;SDS011;54543;50.712;6.070;2023-05-10T14:53:23;3.28;;;2.28;;
67747;SDS011;54543;50.712;6.070;2023-05-10T14:55:48;3.30;;;2.25;;
67747;SDS011;54543;50.712;6.070;2023-05-10T14:58:14;3.65;;;2.42;;
67747;SDS011;54543;50.712;6.070;2023-05-10T15:00:40;3.92;;;2.70;;
67747;SDS011;54543;50.712;6.070;2023-05-10T15:03:05;3.33;;;2.30;;
67747;SDS011;54543;50.712;6.070;2023-05-10T15:05:31;2.90;;;2.05;;
67747;SDS011;54543;50.712;6.070;2023-05-10T15:07:57;3.40;;;2.50;;
67747;SDS011;54543;50.712;6.070;2023-05-10T15:10:23;3.42;;;2.10;;
67747;SDS011;54543;50.712;6.070;2023-05-10T15:12:49;2.83;;;1.85;;
67747;SDS011;54543;50.712;6.070;2023-05-10T15:15:15;2.60;;;1.65;;
67747;SDS011;54543;50.712;6.070;2023-05-10T15:17:41;4.15;;;2.53;;
67747;SDS011;54543;50.712;6.070;2023-05-10T15:20:06;3.50;;;2.47;;
67747;SDS011;54543;50.712;6.070;2023-05-10T15:22:32;4.28;;;2.05;;
67747;SDS011;54543;50.712;6.070;2023-05-10T15:24:58;2.70;;;1.70;;